Time;durP1;ratioP1;P1;durP2;ratioP2;P2;SDS_P1;SDS_P2;PMS_P1;PMS_P2;Temp;Humidity;BMP_temperature;BMP_pressure;BME280_temperature;BME280_humidity;BME280_pressure;Samples;Min_cycle;Max_cycle;Signal;HPM_P1;HPM_P2
2022/07/09 00:00:21;;;;;;;1.77;1.08;;;15.70;99.90;;;;;;5001534;23;20054;-54
2022/07/09 00:02:46;;;;;;;2.22;1.02;;;15.70;99.90;;;;;;4973183;28;20034;-48
2022/07/09 00:05:13;;;;;;;2.05;1.13;;;15.60;99.90;;;;;;4973377;28;20101;-49
2022/07/09 00:07:39;;;;;;;1.35;1.00;;;15.60;99.90;;;;;;4973602;28;20366;-49
2022/07/09 00:10:06;;;;;;;4.95;1.20;;;15.60;99.90;;;;;;4974452;28;20035;-48
2022/07/09 00:12:31;;;;;;;1.60;1.17;;;15.60;99.90;;;;;;4973216;28;20027;-50
2022/07/09 00:14:57;;;;;;;2.13;0.90;;;15.60;99.90;;;;;;4974817;28;20027;-50
2022/07/09 00:17:23;;;;;;;1.25;1.15;;;15.50;99.90;;;;;;4973383;28;20033;-48
2022/07/09 00:19:48;;;;;;;1.38;1.13;;;15.50;99.90;;;;;;4973503;28;20027;-50
2022/07/09 00:22:14;;;;;;;4.50;1.25;;;15.50;99.90;;;;;;4973783;28;20027;-50
2022/07/09 00:24:40;;;;;;;1.67;1.17;;;15.40;99.90;;;;;;4973648;28;20429;-49
2022/07/09 00:27:06;;;;;;;2.17;1.20;;;15.40;99.90;;;;;;4979686;28;20062;-49
2022/07/09 00:29:32;;;;;;;4.50;1.20;;;15.40;99.90;;;;;;4979649;28;20026;-49
2022/07/09 00:31:57;;;;;;;1.50;1.00;;;15.40;99.90;;;;;;4980954;28;20027;-48
2022/07/09 00:34:23;;;;;;;1.75;1.10;;;15.50;99.90;;;;;;4979764;28;20023;-49
2022/07/09 00:36:48;;;;;;;2.20;1.05;;;15.40;99.90;;;;;;4980217;28;20058;-49
2022/07/09 00:39:14;;;;;;;2.92;1.67;;;15.40;99.90;;;;;;4979594;28;20038;-53
2022/07/09 00:41:40;;;;;;;2.10;1.52;;;15.40;99.90;;;;;;4979502;28;20187;-50
2022/07/09 00:44:05;;;;;;;1.23;1.10;;;15.30;99.90;;;;;;4979654;28;20050;-50
2022/07/09 00:46:31;;;;;;;1.35;1.13;;;15.30;99.90;;;;;;4980816;28;20027;-53
2022/07/09 00:48:56;;;;;;;2.35;1.23;;;15.30;99.90;;;;;;4979492;28;20035;-49
2022/07/09 00:51:22;;;;;;;1.25;1.10;;;15.20;99.90;;;;;;4980664;28;20031;-48
2022/07/09 00:53:49;;;;;;;4.20;1.20;;;15.20;99.90;;;;;;4979898;28;20030;-50
2022/07/09 00:56:16;;;;;;;2.05;1.23;;;15.10;99.90;;;;;;4979560;28;20118;-48
2022/07/09 00:58:43;;;;;;;2.90;1.75;;;15.10;99.90;;;;;;4979267;28;20030;-48
2022/07/09 01:01:09;;;;;;;2.92;1.50;;;15.10;99.90;;;;;;4981061;28;20057;-48
2022/07/09 01:03:34;;;;;;;2.35;1.20;;;15.10;99.90;;;;;;4979457;28;20062;-51
2022/07/09 01:06:00;;;;;;;2.22;1.20;;;15.10;99.90;;;;;;4979693;28;20062;-50
2022/07/09 01:08:26;;;;;;;1.88;1.00;;;15.10;99.90;;;;;;4979658;28;20034;-51
2022/07/09 01:10:53;;;;;;;1.27;1.00;;;15.10;99.90;;;;;;4979319;28;20038;-49
2022/07/09 01:13:19;;;;;;;2.03;1.05;;;15.00;99.90;;;;;;4979306;28;20512;-51
2022/07/09 01:15:44;;;;;;;2.75;1.00;;;15.00;99.90;;;;;;4980591;28;20046;-53
2022/07/09 01:18:13;;;;;;;2.97;1.00;;;15.00;99.90;;;;;;4979287;28;20038;-52
2022/07/09 01:20:39;;;;;;;1.45;1.25;;;14.90;99.90;;;;;;4980406;28;20179;-54
2022/07/09 01:23:05;;;;;;;2.55;1.30;;;14.90;99.90;;;;;;4979856;28;20018;-52
2022/07/09 01:25:37;;;;;;;1.80;1.10;;;14.80;99.90;;;;;;4979231;28;20033;-51
2022/07/09 01:28:05;;;;;;;1.17;1.02;;;14.90;99.90;;;;;;4980608;28;20022;-54
2022/07/09 01:30:32;;;;;;;1.38;1.20;;;14.90;99.90;;;;;;4980361;28;20027;-55
2022/07/09 01:32:58;;;;;;;2.53;1.35;;;14.80;99.90;;;;;;4979086;28;20122;-51
2022/07/09 01:35:24;;;;;;;3.25;1.45;;;14.80;99.90;;;;;;4980339;28;20098;-51
2022/07/09 01:37:50;;;;;;;2.53;1.38;;;14.80;99.90;;;;;;4977653;28;20102;-50
2022/07/09 01:40:16;;;;;;;2.40;1.20;;;14.80;99.90;;;;;;4977350;28;20031;-50
2022/07/09 01:42:41;;;;;;;2.17;1.40;;;14.70;99.90;;;;;;4975978;28;20030;-50
2022/07/09 01:45:07;;;;;;;2.50;1.30;;;14.70;99.90;;;;;;4976420;28;20062;-50
2022/07/09 01:47:33;;;;;;;3.20;1.30;;;14.70;99.90;;;;;;4975982;28;20031;-52
2022/07/09 01:49:58;;;;;;;1.98;1.35;;;14.70;99.90;;;;;;4976144;28;20027;-51
2022/07/09 01:52:25;;;;;;;1.58;1.15;;;14.60;99.90;;;;;;4975761;28;20062;-48
2022/07/09 01:54:50;;;;;;;4.63;1.30;;;14.60;99.90;;;;;;4975729;28;20027;-49
2022/07/09 01:57:16;;;;;;;2.20;1.10;;;14.60;99.90;;;;;;4977065;28;20085;-48
2022/07/09 01:59:42;;;;;;;3.22;1.25;;;14.60;99.90;;;;;;4975840;28;20031;-49
2022/07/09 02:02:07;;;;;;;1.33;1.20;;;14.40;99.90;;;;;;4975714;28;20023;-48
2022/07/09 02:04:33;;;;;;;8.48;1.38;;;14.40;99.90;;;;;;4976398;28;20030;-51
2022/07/09 02:06:59;;;;;;;3.08;1.08;;;14.40;99.90;;;;;;4975910;28;20420;-49
2022/07/09 02:09:24;;;;;;;5.50;1.60;;;14.40;99.90;;;;;;4975579;28;20027;-48
2022/07/09 02:11:50;;;;;;;2.58;1.60;;;14.30;99.90;;;;;;4975472;28;20034;-49
2022/07/09 02:14:27;;;;;;;2.50;1.30;;;14.30;99.90;;;;;;4976730;28;20023;-53
2022/07/09 02:16:52;;;;;;;1.38;1.08;;;14.30;99.90;;;;;;4975448;28;20027;-49
2022/07/09 02:19:18;;;;;;;4.07;1.55;;;14.30;99.90;;;;;;4976115;28;20023;-48
2022/07/09 02:21:43;;;;;;;2.40;1.50;;;14.30;99.90;;;;;;4976570;28;20600;-49
2022/07/09 02:24:09;;;;;;;3.53;1.40;;;14.30;99.90;;;;;;4975245;28;20027;-52
2022/07/09 02:26:35;;;;;;;2.08;1.40;;;14.30;99.90;;;;;;4975162;28;20030;-50
2022/07/09 02:29:01;;;;;;;2.38;1.20;;;14.20;99.90;;;;;;4976328;28;20027;-51
2022/07/09 02:31:26;;;;;;;3.88;1.50;;;14.20;99.90;;;;;;4975336;28;20034;-52
2022/07/09 02:33:52;;;;;;;2.97;1.80;;;14.20;99.90;;;;;;4975423;28;20019;-48
2022/07/09 02:36:19;;;;;;;2.78;1.65;;;14.10;99.90;;;;;;4975031;28;20022;-48
2022/07/09 02:38:44;;;;;;;2.00;1.75;;;14.10;99.90;;;;;;4975021;28;20027;-50
2022/07/09 02:41:10;;;;;;;2.08;1.60;;;14.00;99.90;;;;;;4975055;28;20458;-53
2022/07/09 02:43:35;;;;;;;2.80;1.45;;;14.10;99.90;;;;;;4974966;28;20045;-50
2022/07/09 02:46:01;;;;;;;1.83;1.73;;;14.10;99.90;;;;;;4976389;28;20031;-49
2022/07/09 02:48:26;;;;;;;3.17;1.52;;;14.10;99.90;;;;;;4975932;28;20025;-49
2022/07/09 02:50:53;;;;;;;4.55;1.83;;;14.10;99.90;;;;;;4974706;28;20026;-50
2022/07/09 02:53:19;;;;;;;2.13;1.55;;;14.00;99.90;;;;;;4975007;28;20027;-48
2022/07/09 02:55:45;;;;;;;3.10;1.88;;;14.00;99.90;;;;;;4974697;28;20062;-48
2022/07/09 02:58:11;;;;;;;4.80;2.10;;;14.00;99.90;;;;;;4975869;28;20031;-48
2022/07/09 03:00:39;;;;;;;2.53;1.67;;;14.00;99.90;;;;;;4974887;28;20054;-52
2022/07/09 03:03:05;;;;;;;1.80;1.55;;;14.00;99.90;;;;;;4974894;28;20081;-49
2022/07/09 03:05:31;;;;;;;1.45;1.27;;;14.00;99.90;;;;;;4974448;28;20121;-51
2022/07/09 03:07:56;;;;;;;2.75;1.75;;;14.00;99.90;;;;;;4974842;28;20027;-48
2022/07/09 03:10:22;;;;;;;2.97;1.45;;;13.90;99.90;;;;;;4974616;28;20038;-53
2022/07/09 03:12:48;;;;;;;12.10;2.63;;;13.90;99.90;;;;;;4974688;28;20077;-54
2022/07/09 03:15:16;;;;;;;2.50;1.33;;;13.90;99.90;;;;;;4974379;28;20110;-55
2022/07/09 03:17:42;;;;;;;7.60;2.15;;;13.90;99.90;;;;;;4974374;28;20042;-48
2022/07/09 03:20:09;;;;;;;3.20;1.58;;;13.90;99.90;;;;;;4974251;28;20057;-52
2022/07/09 03:22:35;;;;;;;4.35;2.13;;;13.80;99.90;;;;;;4975078;28;20105;-49
2022/07/09 03:25:01;;;;;;;5.13;2.00;;;13.90;99.90;;;;;;4975362;28;20034;-51
2022/07/09 03:27:26;;;;;;;3.33;1.80;;;13.80;99.90;;;;;;4974087;28;20030;-51
2022/07/09 03:29:52;;;;;;;5.35;2.50;;;13.90;99.90;;;;;;4975068;28;20029;-55
2022/07/09 03:32:18;;;;;;;5.18;2.10;;;13.80;99.90;;;;;;4974095;28;20027;-51
2022/07/09 03:34:43;;;;;;;5.93;2.28;;;13.90;99.90;;;;;;4975834;28;20033;-51
2022/07/09 03:37:09;;;;;;;5.03;2.40;;;13.90;99.90;;;;;;4974178;28;20023;-52
2022/07/09 03:39:35;;;;;;;5.68;2.47;;;13.90;99.90;;;;;;4974626;28;20046;-49
2022/07/09 03:42:00;;;;;;;3.60;2.30;;;13.90;99.90;;;;;;4973858;28;20035;-47
2022/07/09 03:44:26;;;;;;;12.95;2.50;;;13.90;99.90;;;;;;4973947;28;20040;-48
2022/07/09 03:47:05;;;;;;;3.22;2.45;;;14.00;99.90;;;;;;4973773;28;20031;-48
2022/07/09 03:49:31;;;;;;;2.75;2.00;;;14.00;99.90;;;;;;4974992;28;20113;-53
2022/07/09 03:51:57;;;;;;;2.88;2.10;;;14.10;99.90;;;;;;4973673;28;20121;-48
2022/07/09 03:54:23;;;;;;;2.75;2.30;;;14.20;99.90;;;;;;4974024;28;20023;-50
2022/07/09 03:56:49;;;;;;;5.50;2.00;;;14.30;99.90;;;;;;4974901;28;20031;-50
2022/07/09 03:59:14;;;;;;;4.25;2.28;;;14.40;99.90;;;;;;4973481;28;20047;-53
2022/07/09 04:01:40;;;;;;;3.08;2.60;;;14.50;99.90;;;;;;4973074;28;20027;-50
2022/07/09 04:04:05;;;;;;;3.33;2.00;;;14.50;99.90;;;;;;4972972;28;20023;-50
2022/07/09 04:06:31;;;;;;;5.63;2.50;;;14.60;99.90;;;;;;4974639;28;20035;-52
2022/07/09 04:08:57;;;;;;;5.03;2.30;;;14.80;99.90;;;;;;4973447;28;20030;-50
2022/07/09 04:11:22;;;;;;;4.40;2.60;;;14.90;99.90;;;;;;4973412;28;20069;-52
2022/07/09 04:13:48;;;;;;;8.77;2.35;;;15.00;99.90;;;;;;4973788;28;20354;-50
2022/07/09 04:16:14;;;;;;;5.35;1.90;;;15.20;99.90;;;;;;4973661;28;20030;-52
2022/07/09 04:18:43;;;;;;;6.72;2.42;;;15.30;99.90;;;;;;4973281;28;20085;-50
2022/07/09 04:21:09;;;;;;;7.28;2.33;;;15.50;99.90;;;;;;4974503;28;20417;-52
2022/07/09 04:23:35;;;;;;;4.15;3.10;;;15.60;99.90;;;;;;4973640;28;20030;-49
2022/07/09 04:26:01;;;;;;;3.38;1.90;;;15.70;99.90;;;;;;4973274;28;20090;-49
2022/07/09 04:31:48;;;;;;;3.13;2.10;;;16.00;99.90;;;;;;4974647;28;20181;-48
2022/07/09 04:34:14;;;;;;;8.68;1.90;;;16.20;99.90;;;;;;4973787;28;20457;-52
2022/07/09 04:36:39;;;;;;;5.30;1.70;;;16.40;99.90;;;;;;4973236;28;20030;-53
2022/07/09 04:39:05;;;;;;;3.72;1.83;;;16.80;99.90;;;;;;4974371;28;20466;-53
2022/07/09 04:41:31;;;;;;;7.72;1.83;;;17.10;99.90;;;;;;4973529;28;20031;-54
2022/07/09 04:43:56;;;;;;;3.13;1.95;;;17.50;99.90;;;;;;4973624;28;20030;-51
2022/07/09 04:46:22;;;;;;;2.22;1.80;;;17.70;99.90;;;;;;4973270;28;20507;-49
2022/07/09 04:48:49;;;;;;;3.00;2.00;;;17.90;99.90;;;;;;4973037;28;20489;-51
2022/07/09 04:51:14;;;;;;;2.58;2.38;;;18.00;99.90;;;;;;4974120;28;20031;-52
2022/07/09 04:53:40;;;;;;;3.72;2.10;;;18.10;99.90;;;;;;4972987;28;20077;-52
2022/07/09 04:56:06;;;;;;;4.10;2.22;;;18.30;99.90;;;;;;4973012;28;20030;-48
2022/07/09 04:58:32;;;;;;;2.72;2.08;;;18.50;99.90;;;;;;4974371;28;20018;-55
2022/07/09 05:00:58;;;;;;;3.97;2.72;;;18.40;99.90;;;;;;4973019;28;20054;-50
2022/07/09 05:03:24;;;;;;;4.63;2.10;;;18.50;99.90;;;;;;4973018;28;20066;-51
2022/07/09 05:05:50;;;;;;;3.35;2.25;;;18.60;99.90;;;;;;4974161;28;20034;-49
2022/07/09 05:08:17;;;;;;;8.57;1.90;;;18.60;99.90;;;;;;4972893;28;20023;-51
2022/07/09 05:10:42;;;;;;;4.00;1.75;;;18.70;99.90;;;;;;4973109;28;20034;-53
2022/07/09 05:13:08;;;;;;;11.55;3.03;;;18.80;99.90;;;;;;4976331;28;20031;-53
2022/07/09 05:15:34;;;;;;;5.07;2.33;;;18.90;99.90;;;;;;4976475;28;20497;-54
2022/07/09 05:18:00;;;;;;;2.75;2.20;;;18.80;99.90;;;;;;4977285;28;20062;-53
2022/07/09 05:20:26;;;;;;;3.47;1.95;;;18.90;99.90;;;;;;4976409;28;20026;-51
2022/07/09 05:22:52;;;;;;;3.08;2.08;;;18.90;99.90;;;;;;4977671;28;20026;-52
2022/07/09 05:25:17;;;;;;;6.97;2.50;;;18.90;99.90;;;;;;4977646;28;20030;-54
2022/07/09 05:27:47;;;;;;;4.40;2.10;;;18.80;99.90;;;;;;4976307;28;20031;-51
2022/07/09 05:30:14;;;;;;;6.40;1.95;;;18.80;99.90;;;;;;4977421;28;20027;-52
2022/07/09 05:32:41;;;;;;;5.10;2.38;;;18.90;99.90;;;;;;4976202;28;20082;-54
2022/07/09 05:35:07;;;;;;;4.57;2.05;;;18.80;99.90;;;;;;4977463;28;20019;-53
2022/07/09 05:37:33;;;;;;;6.80;2.60;;;18.80;99.90;;;;;;4976605;28;20030;-51
2022/07/09 05:40:01;;;;;;;8.00;2.60;;;18.80;99.90;;;;;;4977577;28;20039;-49
2022/07/09 05:42:27;;;;;;;4.13;2.15;;;18.90;99.90;;;;;;4976522;28;20110;-49
2022/07/09 05:44:52;;;;;;;3.65;2.38;;;19.00;99.90;;;;;;4976846;28;20110;-49
2022/07/09 05:47:18;;;;;;;3.25;2.30;;;19.20;99.90;;;;;;4974806;28;20031;-49
2022/07/09 05:49:43;;;;;;;3.25;2.20;;;19.50;99.90;;;;;;4975804;28;20066;-53
2022/07/09 05:52:09;;;;;;;3.65;2.10;;;19.80;99.90;;;;;;4976340;28;20019;-54
2022/07/09 05:54:36;;;;;;;3.53;1.50;;;20.10;99.90;;;;;;4975572;28;20101;-55
2022/07/09 05:57:01;;;;;;;2.40;1.70;;;20.50;99.90;;;;;;4975507;28;20023;-51
2022/07/09 05:59:27;;;;;;;5.30;2.55;;;20.80;99.90;;;;;;4975436;28;20084;-51
2022/07/09 06:01:53;;;;;;;2.92;2.55;;;21.00;99.90;;;;;;4970493;28;20031;-49
2022/07/09 06:04:19;;;;;;;4.30;2.22;;;21.00;99.90;;;;;;4965328;28;20078;-51
2022/07/09 06:06:45;;;;;;;4.65;2.58;;;21.20;99.90;;;;;;4975013;28;20030;-53
2022/07/09 06:09:22;;;;;;;4.07;2.15;;;21.50;99.90;;;;;;4966568;28;20031;-51
2022/07/09 06:11:47;;;;;;;3.33;2.10;;;22.10;99.90;;;;;;4971639;28;20030;-51
2022/07/09 06:14:13;;;;;;;5.00;2.80;;;22.60;99.90;;;;;;4975517;28;20050;-53
2022/07/09 06:16:38;;;;;;;4.65;2.40;;;23.10;99.90;;;;;;4976304;28;20054;-52
2022/07/09 06:19:04;;;;;;;4.88;1.98;;;23.40;99.90;;;;;;4975301;28;20023;-55
2022/07/09 06:21:30;;;;;;;6.20;2.30;;;23.30;99.90;;;;;;4976366;28;20030;-55
2022/07/09 06:23:55;;;;;;;5.70;2.38;;;23.30;99.90;;;;;;4974560;28;20046;-55
2022/07/09 06:26:21;;;;;;;5.00;2.08;;;23.20;99.90;;;;;;4974815;28;20030;-51
2022/07/09 06:28:46;;;;;;;4.90;2.65;;;22.90;99.90;;;;;;4976158;28;20101;-56
2022/07/09 06:31:12;;;;;;;4.35;2.38;;;22.90;99.90;;;;;;4974796;28;20030;-52
2022/07/09 06:33:38;;;;;;;4.15;2.17;;;22.60;99.90;;;;;;4974974;28;20081;-54
2022/07/09 06:36:04;;;;;;;3.00;2.20;;;22.50;99.90;;;;;;4974799;28;20117;-54
2022/07/09 06:38:30;;;;;;;6.38;3.08;;;22.40;99.90;;;;;;4975987;28;20039;-53
2022/07/09 06:40:56;;;;;;;7.18;2.83;;;22.40;99.90;;;;;;4975313;28;20050;-54
2022/07/09 06:43:22;;;;;;;3.60;2.30;;;22.40;99.90;;;;;;4976182;28;20023;-55
2022/07/09 06:45:48;;;;;;;6.00;2.90;;;22.50;99.90;;;;;;4974856;28;20165;-54
2022/07/09 06:48:13;;;;;;;8.00;2.92;;;22.70;99.90;;;;;;4975217;28;20054;-56
2022/07/09 06:50:39;;;;;;;6.13;2.72;;;22.90;99.90;;;;;;4975773;28;20034;-56
2022/07/09 06:53:04;;;;;;;8.30;2.90;;;23.30;99.90;;;;;;4975387;28;20026;-52
2022/07/09 06:55:30;;;;;;;6.90;3.85;;;23.90;99.90;;;;;;4976007;28;20019;-54
2022/07/09 06:57:57;;;;;;;6.28;3.40;;;24.40;99.90;;;;;;4976453;28;20023;-52
2022/07/09 07:00:23;;;;;;;6.97;2.78;;;25.00;99.90;;;;;;4974744;28;20437;-52
2022/07/09 07:02:49;;;;;;;10.02;2.47;;;25.40;99.90;;;;;;4974469;28;20055;-53
2022/07/09 07:05:15;;;;;;;9.60;2.92;;;25.80;99.90;;;;;;4974638;28;20064;-53
2022/07/09 07:07:41;;;;;;;4.63;2.47;;;25.90;99.90;;;;;;4975764;28;20031;-56
2022/07/09 07:10:08;;;;;;;5.35;2.75;;;26.30;99.90;;;;;;4974429;28;20034;-56
2022/07/09 07:12:34;;;;;;;3.55;2.30;;;26.90;99.90;;;;;;4975263;28;20054;-56
2022/07/09 07:15:00;;;;;;;5.90;3.67;;;27.30;99.90;;;;;;4974430;28;20061;-57
2022/07/09 07:17:25;;;;;;;9.70;4.95;;;27.80;99.90;;;;;;4974167;28;20023;-56
2022/07/09 07:19:51;;;;;;;7.95;3.00;;;28.40;99.90;;;;;;4975443;28;20077;-56
2022/07/09 07:22:16;;;;;;;5.50;2.33;;;28.90;99.90;;;;;;4974731;28;20062;-55
2022/07/09 07:24:42;;;;;;;5.90;3.05;;;29.40;99.90;;;;;;4975560;28;20026;-55
2022/07/09 07:27:08;;;;;;;7.60;2.53;;;29.70;99.90;;;;;;4974357;28;20030;-56
2022/07/09 07:29:33;;;;;;;8.63;3.33;;;30.20;99.90;;;;;;4975624;28;20428;-57
2022/07/09 07:31:59;;;;;;;4.80;2.50;;;30.70;99.50;;;;;;4973999;28;20026;-56
2022/07/09 07:34:25;;;;;;;10.32;3.60;;;31.00;97.40;;;;;;4973905;28;20026;-56
2022/07/09 07:36:51;;;;;;;7.78;3.53;;;31.20;96.40;;;;;;4974578;28;20026;-57
2022/07/09 07:39:18;;;;;;;6.90;3.00;;;31.00;95.60;;;;;;4975107;28;20027;-54
2022/07/09 07:41:44;;;;;;;11.15;3.42;;;31.00;95.30;;;;;;4974706;28;20026;-52
2022/07/09 07:44:10;;;;;;;7.70;3.45;;;31.60;94.30;;;;;;4975515;28;20038;-57
2022/07/09 07:46:35;;;;;;;11.57;4.25;;;32.50;93.30;;;;;;4975594;28;20062;-57
2022/07/09 07:49:01;;;;;;;9.82;3.85;;;33.20;90.80;;;;;;4975199;28;20026;-57
2022/07/09 07:51:26;;;;;;;7.97;3.20;;;34.00;89.90;;;;;;4974264;28;20050;-57
2022/07/09 07:53:52;;;;;;;8.68;3.00;;;34.80;84.80;;;;;;4973712;28;20054;-57
2022/07/09 07:56:18;;;;;;;7.80;3.42;;;35.40;82.00;;;;;;4974939;28;20027;-57
2022/07/09 07:58:44;;;;;;;7.07;2.88;;;35.80;80.10;;;;;;4973859;28;20027;-57
2022/07/09 08:01:09;;;;;;;8.30;2.50;;;36.40;76.80;;;;;;4973699;28;20030;-54
2022/07/09 08:03:58;;;;;;;5.85;2.83;;;37.00;76.80;;;;;;4975032;28;20027;-55
2022/07/09 08:06:23;;;;;;;15.82;3.85;;;36.60;72.10;;;;;;4973605;28;20030;-57
2022/07/09 08:08:49;;;;;;;8.50;2.97;;;35.20;74.60;;;;;;4973405;28;20027;-56
2022/07/09 08:11:15;;;;;;;6.18;2.72;;;34.20;76.00;;;;;;4973342;28;20023;-56
2022/07/09 08:13:40;;;;;;;5.90;3.05;;;33.60;77.70;;;;;;4974644;28;20027;-55
2022/07/09 08:16:06;;;;;;;8.80;3.05;;;33.50;78.30;;;;;;4973254;28;20027;-56
2022/07/09 08:18:32;;;;;;;8.50;2.60;;;33.30;78.30;;;;;;4973245;28;20027;-56
2022/07/09 08:20:58;;;;;;;5.32;2.50;;;33.20;78.30;;;;;;4974758;28;20102;-56
2022/07/09 08:23:24;;;;;;;9.05;2.90;;;33.20;77.00;;;;;;4974765;28;20031;-57
2022/07/09 08:25:49;;;;;;;5.03;1.88;;;33.00;77.30;;;;;;4973401;28;20445;-56
2022/07/09 08:28:15;;;;;;;6.78;2.40;;;33.10;77.50;;;;;;4974523;28;20066;-57
2022/07/09 08:30:41;;;;;;;5.97;2.42;;;33.60;77.20;;;;;;4974462;28;20031;-56
2022/07/09 08:33:07;;;;;;;6.13;2.15;;;35.00;75.00;;;;;;4973214;28;20050;-54
2022/07/09 08:35:33;;;;;;;7.43;2.10;;;35.70;73.30;;;;;;4973311;28;20029;-57
2022/07/09 08:37:58;;;;;;;5.05;2.25;;;36.00;71.30;;;;;;4972459;28;20011;-56
2022/07/09 08:40:25;;;;;;;7.90;2.78;;;36.70;70.30;;;;;;4973485;28;20154;-56
2022/07/09 08:42:53;;;;;;;5.03;2.00;;;37.00;68.30;;;;;;4974668;28;20544;-56
2022/07/09 08:45:21;;;;;;;5.20;2.13;;;36.70;68.60;;;;;;4973179;28;20026;-55
2022/07/09 08:47:47;;;;;;;8.27;2.40;;;36.10;68.90;;;;;;4976733;28;20035;-54
2022/07/09 08:50:13;;;;;;;6.47;2.20;;;36.50;68.30;;;;;;4976961;28;20033;-56
2022/07/09 08:52:41;;;;;;;6.88;2.38;;;36.20;68.20;;;;;;4978259;28;20038;-55
2022/07/09 08:55:08;;;;;;;5.97;2.60;;;35.20;70.60;;;;;;4977083;28;20026;-57
2022/07/09 08:57:34;;;;;;;4.53;2.40;;;34.40;70.40;;;;;;4977213;28;20022;-56
2022/07/09 09:00:04;;;;;;;5.25;2.10;;;33.40;71.90;;;;;;4977987;28;20030;-55
2022/07/09 09:02:36;;;;;;;4.10;2.28;;;32.40;73.50;;;;;;4978482;28;20031;-55
2022/07/09 09:05:10;;;;;;;3.42;2.38;;;31.70;75.30;;;;;;4977981;28;20034;-56
2022/07/09 09:07:36;;;;;;;5.28;2.38;;;31.20;75.70;;;;;;4977847;28;20081;-56
2022/07/09 09:10:01;;;;;;;5.05;2.60;;;31.00;76.30;;;;;;4976650;28;20031;-55
2022/07/09 09:12:28;;;;;;;6.13;2.22;;;30.90;76.70;;;;;;4976849;28;20065;-55
2022/07/09 09:14:53;;;;;;;5.80;2.58;;;30.80;76.20;;;;;;4977161;28;20425;-55
2022/07/09 09:17:19;;;;;;;7.28;3.00;;;30.60;77.30;;;;;;4977780;28;20019;-55
2022/07/09 09:19:45;;;;;;;9.32;3.42;;;30.30;78.10;;;;;;4977781;28;20035;-56
2022/07/09 09:22:15;;;;;;;9.85;3.17;;;29.90;79.10;;;;;;4976558;28;20027;-56
2022/07/09 09:24:42;;;;;;;5.30;3.07;;;29.50;79.90;;;;;;4978096;28;20034;-55
2022/07/09 09:27:08;;;;;;;5.82;2.55;;;29.40;80.60;;;;;;4977654;28;20031;-56
2022/07/09 09:29:39;;;;;;;7.35;3.30;;;29.20;80.80;;;;;;4977570;28;20495;-56
2022/07/09 09:32:12;;;;;;;8.50;3.22;;;29.00;82.00;;;;;;4976271;28;20054;-56
2022/07/09 09:38:29;;;;;;;5.60;2.80;;;28.40;84.10;;;;;;4977695;28;20384;-55
2022/07/09 09:40:55;;;;;;;7.47;2.72;;;29.80;82.40;;;;;;4977277;28;20023;-55
2022/07/09 09:43:23;;;;;;;6.22;2.47;;;31.70;80.00;;;;;;4976415;28;20031;-55
2022/07/09 09:45:51;;;;;;;8.02;2.83;;;33.10;76.50;;;;;;4976074;28;20033;-55
2022/07/09 09:48:18;;;;;;;4.18;2.95;;;34.60;73.20;;;;;;4977161;28;20101;-57
2022/07/09 09:50:47;;;;;;;5.75;3.60;;;35.70;70.70;;;;;;4977403;28;20022;-53
2022/07/09 09:53:14;;;;;;;4.32;2.20;;;35.90;68.30;;;;;;4976150;28;20050;-55
2022/07/09 09:55:41;;;;;;;3.67;2.70;;;35.00;69.20;;;;;;4977076;28;20454;-55
2022/07/09 09:58:09;;;;;;;5.90;2.78;;;34.20;70.10;;;;;;4974960;28;20027;-52
2022/07/09 10:00:35;;;;;;;2.85;2.10;;;34.90;68.70;;;;;;4975629;28;20093;-57
2022/07/09 10:03:02;;;;;;;6.63;2.60;;;36.10;67.10;;;;;;4976066;28;20133;-55
2022/07/09 10:05:27;;;;;;;4.32;2.30;;;36.50;66.30;;;;;;4976547;28;20030;-56
2022/07/09 10:07:53;;;;;;;5.45;2.20;;;37.50;63.90;;;;;;4976839;28;20510;-56
2022/07/09 10:10:21;;;;;;;2.45;1.70;;;37.60;62.50;;;;;;4976830;28;20033;-52
2022/07/09 10:12:47;;;;;;;5.30;2.58;;;37.30;62.30;;;;;;4976818;28;20056;-56
2022/07/09 10:15:26;;;;;;;2.42;1.70;;;36.70;62.40;;;;;;4976781;28;20054;-55
2022/07/09 10:17:52;;;;;;;4.32;1.80;;;36.10;61.60;;;;;;4975380;28;20571;-56
2022/07/09 10:20:33;;;;;;;2.25;1.92;;;34.70;64.50;;;;;;4975769;28;20027;-52
2022/07/09 10:22:59;;;;;;;3.58;1.92;;;33.90;65.90;;;;;;4976617;28;20038;-51
2022/07/09 10:25:44;;;;;;;3.38;1.73;;;34.30;66.00;;;;;;4976530;28;20027;-52
2022/07/09 10:28:20;;;;;;;5.38;1.88;;;35.10;64.20;;;;;;4975395;28;20034;-48
2022/07/09 10:30:46;;;;;;;2.45;2.00;;;35.80;62.30;;;;;;4975611;28;20026;-52
2022/07/09 10:33:24;;;;;;;2.97;2.00;;;35.90;61.30;;;;;;4975167;28;20026;-54
2022/07/09 10:36:36;;;;;;;2.83;1.65;;;35.40;62.70;;;;;;4975417;28;20054;-49
2022/07/09 10:39:11;;;;;;;3.20;1.40;;;34.70;61.60;;;;;;4975168;28;20027;-53
2022/07/09 10:41:37;;;;;;;1.67;1.55;;;33.70;62.70;;;;;;4976333;28;20363;-54
2022/07/09 10:44:03;;;;;;;1.60;1.15;;;33.20;65.90;;;;;;4975475;28;20035;-54
2022/07/09 10:46:29;;;;;;;4.05;1.67;;;33.00;64.70;;;;;;4976236;28;20034;-51
2022/07/09 10:48:58;;;;;;;3.13;1.98;;;32.60;66.60;;;;;;4974884;28;20030;-54
2022/07/09 10:51:24;;;;;;;1.67;1.48;;;32.10;66.90;;;;;;4974871;28;20182;-53
2022/07/09 10:53:50;;;;;;;1.75;1.38;;;31.60;67.60;;;;;;4975961;28;20078;-55
2022/07/09 10:56:20;;;;;;;2.53;1.33;;;31.30;68.80;;;;;;4974836;28;20034;-52
2022/07/09 10:58:47;;;;;;;2.55;1.65;;;31.40;69.60;;;;;;4975789;28;20023;-51
2022/07/09 11:01:19;;;;;;;4.72;1.88;;;31.40;69.50;;;;;;4966443;28;20027;-48
2022/07/09 11:03:49;;;;;;;3.35;1.77;;;30.90;69.60;;;;;;4956689;28;20217;-52
2022/07/09 11:06:15;;;;;;;1.83;1.60;;;30.90;70.50;;;;;;4956174;28;20046;-52
2022/07/09 11:08:40;;;;;;;4.22;1.58;;;30.90;70.50;;;;;;4956018;29;20422;-54
2022/07/09 11:11:06;;;;;;;1.38;1.27;;;30.90;68.70;;;;;;4956591;28;20019;-52
2022/07/09 11:13:31;;;;;;;2.83;1.20;;;30.70;69.10;;;;;;4955701;29;20026;-52
2022/07/09 11:15:59;;;;;;;2.38;1.90;;;30.70;70.10;;;;;;4955402;29;20481;-54
2022/07/09 11:18:27;;;;;;;10.80;1.83;;;30.60;69.70;;;;;;4955342;28;20087;-56
2022/07/09 11:20:52;;;;;;;1.98;1.48;;;30.60;70.80;;;;;;4955176;29;20035;-56
2022/07/09 11:23:18;;;;;;;1.30;1.15;;;30.50;70.90;;;;;;4954965;28;20536;-52
2022/07/09 11:25:46;;;;;;;2.42;1.40;;;30.40;69.60;;;;;;4956265;28;20065;-54
2022/07/09 11:28:26;;;;;;;3.20;1.55;;;30.40;69.90;;;;;;4954863;29;20034;-46
2022/07/09 11:31:03;;;;;;;1.65;1.50;;;30.40;70.90;;;;;;4954825;29;20061;-51
2022/07/09 11:34:10;;;;;;;5.80;1.80;;;30.20;71.00;;;;;;4955184;28;20042;-55
2022/07/09 11:36:16;;;;;;;2.35;1.35;;;30.30;71.60;;;;;;4956435;29;20023;-54
2022/07/09 11:38:53;;;;;;;2.95;1.30;;;30.20;70.60;;;;;;4955704;28;20438;-53
2022/07/09 11:41:19;;;;;;;4.40;1.83;;;29.80;70.00;;;;;;4954767;28;20094;-51
2022/07/09 11:43:52;;;;;;;2.45;1.33;;;29.80;71.30;;;;;;4954877;28;20026;-54
2022/07/09 11:46:19;;;;;;;4.65;1.83;;;29.90;70.10;;;;;;4954621;29;20147;-55
2022/07/09 11:48:51;;;;;;;2.42;1.60;;;30.00;70.30;;;;;;4954452;28;20023;-52
2022/07/09 11:51:33;;;;;;;1.40;1.30;;;30.10;70.70;;;;;;4955987;28;20047;-55
2022/07/09 11:54:00;;;;;;;1.83;1.50;;;30.10;70.20;;;;;;4956335;28;20015;-49
2022/07/09 11:56:26;;;;;;;2.95;1.13;;;30.10;68.70;;;;;;4954493;29;20050;-52
2022/07/09 11:58:53;;;;;;;2.70;1.30;;;30.00;68.10;;;;;;4955648;28;20031;-54
2022/07/09 12:01:19;;;;;;;2.30;1.35;;;30.00;68.60;;;;;;4955642;28;20027;-54
2022/07/09 12:03:49;;;;;;;2.05;1.55;;;30.10;68.40;;;;;;4955520;28;20082;-55
2022/07/09 12:06:16;;;;;;;2.53;1.33;;;30.10;69.50;;;;;;4954334;29;20019;-53
2022/07/09 12:08:42;;;;;;;1.55;1.20;;;30.10;68.80;;;;;;4954186;29;20034;-56
2022/07/09 12:11:07;;;;;;;1.30;1.20;;;30.00;69.10;;;;;;4955422;28;20023;-55
2022/07/09 12:13:33;;;;;;;2.33;1.40;;;30.10;69.50;;;;;;4954196;29;20024;-53
2022/07/09 12:15:58;;;;;;;4.90;1.58;;;30.20;69.00;;;;;;4954289;29;20031;-55
2022/07/09 12:18:24;;;;;;;2.28;1.40;;;30.10;68.60;;;;;;4954100;29;20081;-54
2022/07/09 12:20:50;;;;;;;2.00;1.42;;;30.10;70.60;;;;;;4955129;28;20089;-53
2022/07/09 12:23:16;;;;;;;2.50;1.58;;;30.10;69.10;;;;;;4955696;28;20023;-53
2022/07/09 12:25:42;;;;;;;2.55;1.73;;;29.90;69.90;;;;;;4954951;29;20031;-56
2022/07/09 12:28:08;;;;;;;1.95;1.27;;;29.80;70.00;;;;;;4955391;28;20023;-53
2022/07/09 12:30:33;;;;;;;1.42;1.33;;;29.90;70.10;;;;;;4953992;28;20034;-55
2022/07/09 12:32:59;;;;;;;2.17;1.42;;;29.80;70.80;;;;;;4953882;28;20034;-54
2022/07/09 12:35:26;;;;;;;1.33;1.23;;;29.90;71.30;;;;;;4954208;29;20023;-53
2022/07/09 12:37:52;;;;;;;1.75;1.58;;;29.80;70.40;;;;;;4954493;28;20457;-53
2022/07/09 12:40:18;;;;;;;3.30;1.42;;;29.80;69.80;;;;;;4953963;29;20052;-55
2022/07/09 12:42:44;;;;;;;2.80;1.65;;;29.90;70.70;;;;;;4954997;28;20067;-55
2022/07/09 12:45:10;;;;;;;2.60;1.63;;;29.80;71.20;;;;;;4953992;29;20027;-53
2022/07/09 12:47:36;;;;;;;2.05;1.50;;;29.60;72.10;;;;;;4955320;28;20042;-54
2022/07/09 12:50:03;;;;;;;3.22;1.50;;;29.70;71.00;;;;;;4954096;29;20027;-50